»·PEaware :: DIHNF KIZA-KVNY

DIHNF :: KIZA-KVNY

FLIGHT INFORMATION

Flight Status: Arrived
Operator: Unknown
More flights by this operator :: More flights under this callsign
Pilot: Klaus A. (15485)
Aircraft: BEECH AIRCRAFT BARON
(BE58)
More flights by this aircraft type
Origin: KIZA Santa Ynez
United States
Destination: KVNY Van Nuys
United States
More flights between these airports :: More routes between these airports
Route: RZS V186 FIM
File this flight plan on PilotEdge
Remarks: TEC route SBAP37 Departure RWY 8 via ODP
Altitude:
(Current/Filed)
7,000ft
Speed:
(Current/Filed)
170kts
Departed: 06-Feb-19 09:35 AM
Arrived: 06-Feb-19 10:22 AM
Distance/Time
Traveled:
82nm/0:46
Distance/Time
To Go:
Arrived

Flight Plot

Page will automatically refresh every two minutes.


Map Options




Map Legend


Flown Route
Filed Route
Departure Airport
Arrival Airport
Navaid (VOR, NDB)
Fix

Horizontal Profiles

Position Reports

Time Latitude Longitude Heading Altitude Ground
Speed
06-Feb-19 09:21 34.607507 -120.075051 8 674ft 0kts
06-Feb-19 09:22 34.607507 -120.075051 8 674ft 0kts
06-Feb-19 09:23 34.607507 -120.075051 8 674ft 0kts
06-Feb-19 09:24 34.607507 -120.075051 8 674ft 0kts
06-Feb-19 09:25 34.607507 -120.075051 8 674ft 0kts
06-Feb-19 09:26 34.607507 -120.075051 8 674ft 0kts
06-Feb-19 09:27 34.607507 -120.075051 8 674ft 0kts
06-Feb-19 09:27 34.607637 -120.075092 315 674ft 6kts
06-Feb-19 09:29 34.607575 -120.078463 276 674ft 15kts
06-Feb-19 09:30 34.607833 -120.079935 302 674ft 0kts
06-Feb-19 09:31 34.607832 -120.079935 303 674ft 0kts
06-Feb-19 09:31 34.607832 -120.079935 303 674ft 0kts
06-Feb-19 09:32 34.607755 -120.080092 184 674ft 0kts
06-Feb-19 09:34 34.607714 -120.080093 180 674ft 3kts
06-Feb-19 09:35 34.606819 -120.075571 99 674ft 90kts
06-Feb-19 09:35 34.600309 -120.047481 151 2032ft 113kts
06-Feb-19 09:36 34.587828 -120.074706 272 3777ft 127kts
06-Feb-19 09:37 34.589975 -120.119166 266 4976ft 147kts
06-Feb-19 09:38 34.604189 -120.160507 323 6193ft 154kts
06-Feb-19 09:39 34.639251 -120.191220 321 7080ft 155kts
06-Feb-19 09:40 34.678568 -120.227396 319 6956ft 187kts
06-Feb-19 09:41 34.720196 -120.266239 321 6969ft 186kts
06-Feb-19 09:42 34.761551 -120.304014 320 7036ft 187kts
06-Feb-19 09:43 34.803023 -120.303402 79 7078ft 178kts
06-Feb-19 09:44 34.784098 -120.251040 121 7048ft 178kts
06-Feb-19 09:45 34.758357 -120.200492 127 7048ft 175kts
06-Feb-19 09:46 34.730143 -120.152350 127 7048ft 175kts
06-Feb-19 09:47 34.701944 -120.103516 127 7048ft 176kts
06-Feb-19 09:48 34.673751 -120.054534 127 7048ft 176kts
06-Feb-19 09:49 34.645537 -120.005665 127 7047ft 176kts
06-Feb-19 09:50 34.617389 -119.956822 126 7049ft 176kts
06-Feb-19 09:51 34.589285 -119.907930 127 7051ft 176kts
06-Feb-19 09:52 34.560813 -119.859477 127 7053ft 176kts
06-Feb-19 09:53 34.532132 -119.811241 127 7054ft 176kts
06-Feb-19 09:55 34.507244 -119.749598 103 7055ft 179kts
06-Feb-19 09:55 34.499007 -119.700108 104 7050ft 179kts
06-Feb-19 09:56 34.488740 -119.640946 103 7050ft 179kts
06-Feb-19 09:57 34.479545 -119.580993 103 6999ft 180kts
06-Feb-19 09:58 34.469353 -119.521526 104 6990ft 180kts
06-Feb-19 09:59 34.459260 -119.462149 105 6979ft 179kts
06-Feb-19 10:00 34.448895 -119.402837 105 6966ft 179kts
06-Feb-19 10:01 34.438588 -119.346535 105 6962ft 179kts
06-Feb-19 10:02 34.429498 -119.291895 103 6962ft 180kts
06-Feb-19 10:03 34.419120 -119.233387 105 6990ft 176kts
06-Feb-19 10:04 34.408818 -119.175357 107 6977ft 176kts
06-Feb-19 10:05 34.384265 -119.125004 124 6898ft 171kts
06-Feb-19 10:06 34.358988 -119.075612 124 6141ft 173kts
06-Feb-19 10:07 34.333979 -119.026405 123 5493ft 170kts
06-Feb-19 10:08 34.309333 -118.977907 122 5039ft 163kts
06-Feb-19 10:09 34.287712 -118.930845 123 5084ft 160kts
06-Feb-19 10:10 34.264716 -118.884220 120 5042ft 160kts
06-Feb-19 10:11 34.243954 -118.837292 125 4729ft 161kts
06-Feb-19 10:12 34.221901 -118.789805 124 4106ft 161kts
06-Feb-19 10:13 34.201627 -118.745229 118 4027ft 144kts
06-Feb-19 10:14 34.183560 -118.703748 120 4089ft 138kts
06-Feb-19 10:15 34.164204 -118.663532 109 4086ft 140kts
06-Feb-19 10:16 34.157219 -118.616976 98 4117ft 140kts
06-Feb-19 10:17 34.154921 -118.569295 94 4110ft 143kts
06-Feb-19 10:18 34.155142 -118.520866 91 3051ft 132kts
06-Feb-19 10:19 34.161459 -118.483625 27 1263ft 119kts
06-Feb-19 10:20 34.189670 -118.488473 356 1090ft 111kts
06-Feb-19 10:21 34.206700 -118.489574 82 806ft 12kts
06-Feb-19 10:22 34.206754 -118.488818 85 806ft 0kts
06-Feb-19 10:23 34.205642 -118.487948 86 806ft 11kts
06-Feb-19 10:24 34.205710 -118.487674 352 806ft 0kts
06-Feb-19 10:25 34.205710 -118.487674 352 806ft 0kts
06-Feb-19 10:26 34.205710 -118.487674 352 806ft 0kts
06-Feb-19 10:27 34.205710 -118.487674 352 806ft 0kts
06-Feb-19 10:28 34.205710 -118.487674 352 806ft 0kts
06-Feb-19 10:29 34.205710 -118.487674 352 806ft 0kts
06-Feb-19 10:30 34.205710 -118.487674 352 806ft 0kts
06-Feb-19 10:31 34.205710 -118.487674 352 806ft 0kts
06-Feb-19 10:32 34.205710 -118.487674 352 806ft 0kts

Navigation Log

Ident Type
Flight plan parsing failed, navigation log unavailable